Time;durP1;ratioP1;P1;durP2;ratioP2;P2;SDS_P1;SDS_P2;PMS_P1;PMS_P2;Temp;Humidity;BMP_temperature;BMP_pressure;BME280_temperature;BME280_humidity;BME280_pressure;Samples;Min_cycle;Max_cycle;Signal;HPM_P1;HPM_P2
2023/03/15 00:01:14;;;;;;;;;;;;;;;3.07;100.00;94933.84;10404381;28;2998;-69
2023/03/15 00:06:27;;;;;;;;;;;;;;;3.23;100.00;94937.50;10404657;28;3001;-69
2023/03/15 00:11:30;;;;;;;;;;;;;;;3.44;100.00;94930.56;10403649;28;2130;-67
2023/03/15 00:16:33;;;;;;;;;;;;;;;3.54;100.00;94935.97;10395106;28;2037;-69
2023/03/15 00:21:38;;;;;;;;;;;;;;;3.55;100.00;94945.56;10400340;28;3117;-71
2023/03/15 00:26:41;;;;;;;;;;;;;;;3.51;100.00;94947.91;10396911;28;3053;-70
2023/03/15 00:31:43;;;;;;;;;;;;;;;3.36;100.00;94965.53;10397151;28;3180;-70
2023/03/15 00:36:46;;;;;;;;;;;;;;;2.91;100.00;94963.91;10395579;28;2973;-68
2023/03/15 00:41:51;;;;;;;;;;;;;;;2.53;100.00;94968.13;10391282;28;3209;-69
2023/03/15 00:46:59;;;;;;;;;;;;;;;2.56;100.00;94974.84;10396481;28;2978;-69
2023/03/15 00:52:02;;;;;;;;;;;;;;;2.35;100.00;95005.53;10393637;28;3022;-69
2023/03/15 00:57:05;;;;;;;;;;;;;;;0.65;100.00;95039.56;10400610;28;2014;-70
2023/03/15 01:02:07;;;;;;;;;;;;;;;0.20;100.00;95044.56;10410344;28;3021;-69
2023/03/15 01:07:20;;;;;;;;;;;;;;;0.11;100.00;95037.97;10398695;28;2028;-68
2023/03/15 01:12:23;;;;;;;;;;;;;;;0.08;100.00;95039.25;10412935;28;3142;-68
2023/03/15 01:17:25;;;;;;;;;;;;;;;0.14;100.00;95022.47;10393643;28;3024;-69
2023/03/15 01:22:28;;;;;;;;;;;;;;;0.25;100.00;95013.78;10396068;28;3055;-73
2023/03/15 01:27:30;;;;;;;;;;;;;;;0.27;100.00;95002.97;10403506;28;2117;-69
2023/03/15 01:32:33;;;;;;;;;;;;;;;0.30;100.00;94999.84;10394597;28;3041;-68
2023/03/15 01:37:36;;;;;;;;;;;;;;;0.29;100.00;94982.38;10406250;28;3025;-69
2023/03/15 01:42:41;;;;;;;;;;;;;;;0.35;100.00;94984.13;10399269;28;3035;-68
2023/03/15 01:47:43;;;;;;;;;;;;;;;0.53;100.00;95010.44;10411551;28;3100;-68
2023/03/15 01:52:45;;;;;;;;;;;;;;;0.51;100.00;95004.59;10415894;28;3012;-69
2023/03/15 01:57:48;;;;;;;;;;;;;;;0.60;100.00;95006.88;10415712;28;2053;-70
2023/03/15 02:02:50;;;;;;;;;;;;;;;0.59;100.00;95024.59;10402381;28;3046;-75
2023/03/15 02:07:53;;;;;;;;;;;;;;;0.70;100.00;95036.19;10409274;28;2037;-68
2023/03/15 02:12:56;;;;;;;;;;;;;;;0.79;100.00;95042.78;10405441;28;3164;-68
2023/03/15 02:17:59;;;;;;;;;;;;;;;0.79;100.00;95029.56;10404173;28;2983;-68
2023/03/15 02:23:01;;;;;;;;;;;;;;;0.80;100.00;95039.91;10404280;28;3057;-68
2023/03/15 02:28:04;;;;;;;;;;;;;;;0.81;100.00;95048.63;10407989;28;3077;-68
2023/03/15 02:33:07;;;;;;;;;;;;;;;0.84;100.00;95064.06;10402864;28;2978;-69
2023/03/15 02:38:09;;;;;;;;;;;;;;;0.94;100.00;95064.28;10406588;28;3022;-70
2023/03/15 02:43:12;;;;;;;;;;;;;;;1.04;100.00;95067.16;10406450;28;3011;-70
2023/03/15 02:48:20;;;;;;;;;;;;;;;0.99;100.00;95088.22;10404912;28;3065;-69
2023/03/15 02:53:23;;;;;;;;;;;;;;;0.91;100.00;95103.63;10406843;28;2981;-72
2023/03/15 02:58:25;;;;;;;;;;;;;;;0.73;100.00;95128.34;10412944;28;3085;-69
2023/03/15 03:03:38;;;;;;;;;;;;;;;0.42;100.00;95169.88;10405560;28;3082;-69
2023/03/15 03:08:40;;;;;;;;;;;;;;;0.21;100.00;95202.91;10414140;28;3095;-69
2023/03/15 03:13:44;;;;;;;;;;;;;;;0.15;100.00;95221.50;10405541;28;3073;-71
2023/03/15 03:18:57;;;;;;;;;;;;;;;0.02;100.00;95240.97;10406633;28;3066;-70
2023/03/15 03:24:00;;;;;;;;;;;;;;;-0.16;100.00;95254.97;10401083;28;3157;-69
2023/03/15 03:29:04;;;;;;;;;;;;;;;-0.32;100.00;95272.22;10402066;28;2978;-70
2023/03/15 03:34:08;;;;;;;;;;;;;;;-0.27;100.00;95284.72;10395941;28;3124;-69
2023/03/15 03:39:10;;;;;;;;;;;;;;;-0.22;100.00;95303.38;10396489;28;3039;-70
2023/03/15 03:44:13;;;;;;;;;;;;;;;-0.18;100.00;95320.44;10399735;28;3041;-69
2023/03/15 03:49:16;;;;;;;;;;;;;;;-0.17;100.00;95332.59;10403071;28;3029;-70
2023/03/15 03:54:28;;;;;;;;;;;;;;;-0.15;100.00;95346.41;10394675;28;3089;-70
2023/03/15 03:59:41;;;;;;;;;;;;;;;-0.10;100.00;95365.06;10400539;28;3112;-71
2023/03/15 04:04:53;;;;;;;;;;;;;;;-0.19;100.00;95382.22;10403346;28;2033;-70
2023/03/15 04:09:56;;;;;;;;;;;;;;;-0.22;100.00;95398.47;10401627;28;2065;-71
2023/03/15 04:14:59;;;;;;;;;;;;;;;-0.24;100.00;95400.53;10403715;28;3141;-70
2023/03/15 04:20:04;;;;;;;;;;;;;;;-0.26;100.00;95415.78;10398852;28;2067;-69
2023/03/15 04:25:07;;;;;;;;;;;;;;;-0.20;100.00;95425.47;10395357;28;3022;-72
2023/03/15 04:30:10;;;;;;;;;;;;;;;-0.22;100.00;95432.81;10398225;28;3029;-69
2023/03/15 04:35:13;;;;;;;;;;;;;;;-0.15;100.00;95446.78;10401831;28;3090;-71
2023/03/15 04:40:16;;;;;;;;;;;;;;;-0.10;100.00;95457.53;10397272;28;2982;-70
2023/03/15 04:45:19;;;;;;;;;;;;;;;-0.13;100.00;95470.34;10403793;28;2025;-70
2023/03/15 04:50:22;;;;;;;;;;;;;;;-0.12;100.00;95482.56;10401506;28;2007;-70
2023/03/15 04:55:24;;;;;;;;;;;;;;;-0.08;100.00;95484.53;10397250;28;3049;-68
2023/03/15 05:00:26;;;;;;;;;;;;;;;-0.20;100.00;95503.91;10394615;28;2970;-71
2023/03/15 05:05:31;;;;;;;;;;;;;;;-0.19;100.00;95516.09;10395499;28;3045;-69
2023/03/15 05:10:35;;;;;;;;;;;;;;;-0.32;100.00;95519.63;10402200;28;3041;-68
2023/03/15 05:15:38;;;;;;;;;;;;;;;-0.27;100.00;95533.03;10386539;28;3093;-70
2023/03/15 05:20:42;;;;;;;;;;;;;;;-0.33;100.00;95544.44;10392576;28;2111;-69
2023/03/15 05:25:44;;;;;;;;;;;;;;;-0.33;100.00;95547.88;10397358;28;3025;-70
2023/03/15 05:30:47;;;;;;;;;;;;;;;-0.24;100.00;95559.03;10396533;28;3072;-69
2023/03/15 05:35:56;;;;;;;;;;;;;;;-0.28;100.00;95571.03;10400753;28;3130;-69
2023/03/15 05:41:00;;;;;;;;;;;;;;;-0.18;100.00;95581.16;10389348;28;3101;-68
2023/03/15 05:46:04;;;;;;;;;;;;;;;-0.19;100.00;95590.91;10392182;28;3038;-70
2023/03/15 05:51:07;;;;;;;;;;;;;;;-0.31;100.00;95590.75;10395728;28;3176;-71
2023/03/15 05:56:09;;;;;;;;;;;;;;;-0.29;100.00;95609.03;10407504;28;2052;-69
2023/03/15 06:01:12;;;;;;;;;;;;;;;-0.25;100.00;95625.25;10397507;28;2048;-70
2023/03/15 06:06:15;;;;;;;;;;;;;;;-0.34;100.00;95629.97;10396281;28;2060;-71
2023/03/15 06:11:17;;;;;;;;;;;;;;;-0.40;100.00;95638.72;10397148;28;2086;-70
2023/03/15 06:16:20;;;;;;;;;;;;;;;-0.40;100.00;95636.09;10395094;28;2189;-70
2023/03/15 06:21:22;;;;;;;;;;;;;;;-0.40;100.00;95654.56;10399417;28;2990;-71
2023/03/15 06:26:25;;;;;;;;;;;;;;;-0.30;100.00;95671.63;10409067;28;2075;-70
2023/03/15 06:31:28;;;;;;;;;;;;;;;-0.15;100.00;95658.16;10405613;28;3078;-68
2023/03/15 06:36:31;;;;;;;;;;;;;;;-0.13;100.00;95661.38;10401581;28;3007;-69
2023/03/15 06:41:33;;;;;;;;;;;;;;;0.06;100.00;95669.44;10402281;28;2950;-69
2023/03/15 06:46:36;;;;;;;;;;;;;;;0.11;100.00;95675.72;10392804;28;3052;-68
2023/03/15 06:51:38;;;;;;;;;;;;;;;0.34;100.00;95680.50;10400888;28;2970;-71
2023/03/15 06:56:40;;;;;;;;;;;;;;;0.44;100.00;95683.47;10398429;28;3494;-68
2023/03/15 07:01:43;;;;;;;;;;;;;;;0.47;100.00;95677.78;10402657;28;3034;-68
2023/03/15 07:06:46;;;;;;;;;;;;;;;0.47;100.00;95680.41;10402126;28;3026;-68
2023/03/15 07:11:49;;;;;;;;;;;;;;;0.63;100.00;95688.84;10400080;28;3080;-70
2023/03/15 07:16:52;;;;;;;;;;;;;;;1.25;100.00;95689.81;10398024;28;2165;-69
2023/03/15 07:21:54;;;;;;;;;;;;;;;1.47;100.00;95691.06;10397696;28;3049;-69
2023/03/15 07:26:57;;;;;;;;;;;;;;;1.06;100.00;95692.41;10398492;28;3117;-67
2023/03/15 07:32:00;;;;;;;;;;;;;;;1.08;100.00;95710.72;10396549;28;3124;-69
2023/03/15 07:37:02;;;;;;;;;;;;;;;1.10;100.00;95715.81;10397573;28;3153;-67
2023/03/15 07:42:07;;;;;;;;;;;;;;;1.00;100.00;95708.34;10409259;28;3059;-67
2023/03/15 07:47:09;;;;;;;;;;;;;;;1.00;100.00;95716.28;10399969;28;3013;-68
2023/03/15 07:52:12;;;;;;;;;;;;;;;1.15;100.00;95722.09;10400418;28;2966;-69
2023/03/15 07:57:16;;;;;;;;;;;;;;;1.32;100.00;95717.06;10392165;28;3071;-69
2023/03/15 08:02:18;;;;;;;;;;;;;;;1.53;100.00;95710.56;10397858;28;3029;-69
2023/03/15 08:07:21;;;;;;;;;;;;;;;1.68;100.00;95704.91;10398033;28;3010;-68
2023/03/15 08:12:24;;;;;;;;;;;;;;;1.92;100.00;95709.34;10394693;28;3166;-67
2023/03/15 08:17:27;;;;;;;;;;;;;;;1.73;100.00;95697.13;10404453;28;2998;-70
2023/03/15 08:22:30;;;;;;;;;;;;;;;1.77;100.00;95699.09;10397710;28;3065;-68
2023/03/15 08:27:33;;;;;;;;;;;;;;;1.93;100.00;95697.72;10400096;28;1986;-67
2023/03/15 08:32:36;;;;;;;;;;;;;;;2.51;100.00;95694.56;10395416;28;3194;-68
2023/03/15 08:37:38;;;;;;;;;;;;;;;2.82;100.00;95700.66;10401667;28;2735;-68
2023/03/15 08:42:40;;;;;;;;;;;;;;;2.96;100.00;95691.47;10405163;28;2774;-69
2023/03/15 08:47:43;;;;;;;;;;;;;;;2.87;100.00;95700.81;10422231;28;2710;-72
2023/03/15 08:52:46;;;;;;;;;;;;;;;3.12;100.00;95690.81;10397424;28;2605;-68
2023/03/15 08:57:50;;;;;;;;;;;;;;;3.47;100.00;95682.84;10407258;28;2709;-67
2023/03/15 09:02:53;;;;;;;;;;;;;;;3.33;100.00;95696.59;10398494;28;2776;-68
2023/03/15 09:07:59;;;;;;;;;;;;;;;3.53;100.00;95697.06;10394377;28;2712;-69
2023/03/15 09:13:01;;;;;;;;;;;;;;;4.31;100.00;95680.66;10390097;28;2770;-71
2023/03/15 09:18:04;;;;;;;;;;;;;;;4.44;100.00;95671.56;10395929;28;2715;-69
2023/03/15 09:23:06;;;;;;;;;;;;;;;4.41;100.00;95681.91;10396143;28;2889;-68
2023/03/15 09:28:10;;;;;;;;;;;;;;;4.10;100.00;95683.94;10397684;28;2738;-68
2023/03/15 09:33:13;;;;;;;;;;;;;;;4.41;100.00;95682.72;10397275;28;1958;-75
2023/03/15 09:38:17;;;;;;;;;;;;;;;4.59;100.00;95684.38;10403628;28;2698;-74
2023/03/15 09:43:19;;;;;;;;;;;;;;;4.46;100.00;95684.66;10396561;28;2118;-72
2023/03/15 09:48:22;;;;;;;;;;;;;;;4.29;100.00;95696.06;10386951;28;1978;-68
2023/03/15 09:53:26;;;;;;;;;;;;;;;4.65;100.00;95688.75;10387044;28;2741;-68
2023/03/15 09:58:31;;;;;;;;;;;;;;;4.64;100.00;95692.44;10402563;28;1998;-68
2023/03/15 10:03:35;;;;;;;;;;;;;;;4.45;100.00;95702.47;10399323;28;2697;-69
2023/03/15 10:08:38;;;;;;;;;;;;;;;4.36;100.00;95698.56;10394060;28;2701;-67
2023/03/15 10:13:41;;;;;;;;;;;;;;;4.15;100.00;95715.19;10401179;28;2738;-69
2023/03/15 10:18:44;;;;;;;;;;;;;;;3.63;100.00;95721.25;10400321;28;2721;-69
2023/03/15 10:23:47;;;;;;;;;;;;;;;3.48;100.00;95720.88;10401721;28;2757;-67
2023/03/15 10:28:50;;;;;;;;;;;;;;;3.73;100.00;95712.66;10399393;28;2770;-69
2023/03/15 10:33:52;;;;;;;;;;;;;;;4.06;100.00;95698.75;10398355;28;1982;-69
2023/03/15 10:38:55;;;;;;;;;;;;;;;4.97;100.00;95706.91;10395254;28;2006;-69
2023/03/15 10:43:58;;;;;;;;;;;;;;;5.35;100.00;95703.56;10404875;28;2754;-69
2023/03/15 10:49:01;;;;;;;;;;;;;;;5.02;90.38;95704.31;10392885;28;1976;-68
2023/03/15 10:54:03;;;;;;;;;;;;;;;4.43;99.31;95698.44;10403981;28;2766;-69
2023/03/15 10:59:06;;;;;;;;;;;;;;;4.60;100.00;95702.78;10400667;28;2340;-68
2023/03/15 11:04:14;;;;;;;;;;;;;;;4.81;92.81;95687.97;10390447;28;2714;-68
2023/03/15 11:09:17;;;;;;;;;;;;;;;5.19;92.54;95694.50;10403394;28;1953;-69
2023/03/15 11:14:21;;;;;;;;;;;;;;;5.34;84.05;95680.59;10398125;28;2777;-67
2023/03/15 11:19:23;;;;;;;;;;;;;;;5.60;78.79;95673.81;10400434;28;2741;-66
2023/03/15 11:24:27;;;;;;;;;;;;;;;5.91;75.26;95675.06;10396326;28;2786;-68
2023/03/15 11:29:39;;;;;;;;;;;;;;;5.82;76.00;95682.66;10394996;28;2736;-69
2023/03/15 11:34:42;;;;;;;;;;;;;;;6.19;83.20;95676.78;10399975;28;2794;-69
2023/03/15 11:39:44;;;;;;;;;;;;;;;6.29;66.98;95674.22;10402921;28;2003;-72
2023/03/15 11:44:47;;;;;;;;;;;;;;;6.64;65.71;95671.16;10396354;28;2768;-67
2023/03/15 11:49:59;;;;;;;;;;;;;;;6.53;65.68;95658.75;10406633;28;2885;-68
2023/03/15 11:55:02;;;;;;;;;;;;;;;6.66;63.86;95666.34;10395610;28;2823;-71
2023/03/15 12:00:05;;;;;;;;;;;;;;;6.40;62.41;95654.59;10399586;28;2916;-66
2023/03/15 12:05:09;;;;;;;;;;;;;;;6.41;64.18;95648.19;10403668;28;2741;-66
2023/03/15 12:10:19;;;;;;;;;;;;;;;6.14;59.34;95636.66;10402840;28;2025;-69
2023/03/15 12:15:25;;;;;;;;;;;;;;;5.82;63.77;95644.50;10406385;28;2001;-67
2023/03/15 12:20:27;;;;;;;;;;;;;;;5.89;61.94;95631.78;10435392;28;2802;-69
2023/03/15 12:25:30;;;;;;;;;;;;;;;5.84;63.26;95632.53;10403704;28;2686;-67
2023/03/15 12:30:33;;;;;;;;;;;;;;;6.10;65.40;95614.19;10407027;28;2736;-67
2023/03/15 12:35:37;;;;;;;;;;;;;;;5.87;65.24;95625.91;10440847;28;2733;-68
2023/03/15 12:40:40;;;;;;;;;;;;;;;6.44;63.91;95618.34;10401369;28;3061;-68
2023/03/15 12:45:44;;;;;;;;;;;;;;;6.91;60.65;95620.38;10403177;28;1944;-68
2023/03/15 12:50:49;;;;;;;;;;;;;;;6.54;60.59;95619.50;10396595;28;2048;-68
2023/03/15 12:55:51;;;;;;;;;;;;;;;6.04;58.64;95615.19;10408339;28;2696;-68
2023/03/15 13:01:08;;;;;;;;;;;;;;;6.21;58.09;95610.59;10402649;28;2981;-67
2023/03/15 13:06:11;;;;;;;;;;;;;;;6.26;57.53;95615.19;10397011;28;2764;-67
2023/03/15 13:11:15;;;;;;;;;;;;;;;6.19;58.97;95610.06;10395972;28;2743;-71
2023/03/15 13:16:18;;;;;;;;;;;;;;;6.52;60.57;95611.72;10398014;28;2067;-74
2023/03/15 13:21:21;;;;;;;;;;;;;;;6.36;58.26;95621.47;10403480;28;2222;-72
2023/03/15 13:26:23;;;;;;;;;;;;;;;6.37;59.71;95619.59;10397056;28;2178;-70
2023/03/15 13:31:26;;;;;;;;;;;;;;;6.45;59.58;95614.59;10405329;28;2736;-67
2023/03/15 13:36:32;;;;;;;;;;;;;;;7.11;61.65;95624.28;10418162;28;2730;-66
2023/03/15 13:41:35;;;;;;;;;;;;;;;7.36;57.88;95616.47;10408085;28;2670;-68
2023/03/15 13:46:37;;;;;;;;;;;;;;;6.99;57.26;95617.25;10414139;28;2673;-67
2023/03/15 13:51:50;;;;;;;;;;;;;;;7.06;56.70;95627.72;10406429;28;2790;-67
2023/03/15 13:56:54;;;;;;;;;;;;;;;6.93;58.13;95626.28;10400519;28;2779;-67
2023/03/15 14:01:57;;;;;;;;;;;;;;;6.65;57.43;95626.56;10408221;28;1994;-67
2023/03/15 14:07:02;;;;;;;;;;;;;;;6.67;59.41;95624.41;10402906;28;2018;-68
2023/03/15 14:12:05;;;;;;;;;;;;;;;6.97;56.58;95624.72;10410765;28;1958;-67
2023/03/15 14:17:08;;;;;;;;;;;;;;;7.21;55.88;95624.38;10403632;28;2825;-69
2023/03/15 14:22:11;;;;;;;;;;;;;;;6.87;56.09;95634.50;10408611;28;2707;-68
2023/03/15 14:27:14;;;;;;;;;;;;;;;6.79;57.47;95627.75;10405734;28;1998;-67
2023/03/15 14:32:17;;;;;;;;;;;;;;;6.66;58.67;95636.16;10408401;28;1985;-68
2023/03/15 14:37:20;;;;;;;;;;;;;;;7.13;60.03;95643.56;10402150;28;2162;-68
2023/03/15 14:42:23;;;;;;;;;;;;;;;6.86;60.01;95644.38;10399287;28;2764;-69
2023/03/15 14:47:26;;;;;;;;;;;;;;;6.76;59.88;95639.75;10405298;28;1950;-68
2023/03/15 14:52:28;;;;;;;;;;;;;;;6.71;60.42;95637.03;10404874;28;2749;-68
2023/03/15 14:57:30;;;;;;;;;;;;;;;6.49;61.01;95634.41;10408186;28;2658;-68
2023/03/15 15:02:34;;;;;;;;;;;;;;;6.60;63.41;95629.16;10403669;28;2740;-67
2023/03/15 15:07:40;;;;;;;;;;;;;;;6.23;61.97;95635.16;10404292;28;1977;-66
2023/03/15 15:12:43;;;;;;;;;;;;;;;6.25;63.48;95627.75;10407827;28;2840;-73
2023/03/15 15:17:52;;;;;;;;;;;;;;;6.13;61.66;95629.72;10405320;28;2710;-68
2023/03/15 15:22:56;;;;;;;;;;;;;;;6.09;61.71;95644.59;10406739;28;1958;-68
2023/03/15 15:27:59;;;;;;;;;;;;;;;6.38;60.50;95638.03;10398073;28;2703;-67
2023/03/15 15:33:04;;;;;;;;;;;;;;;6.14;62.89;95636.66;10407108;28;2741;-67
2023/03/15 15:38:07;;;;;;;;;;;;;;;6.20;59.76;95633.00;10404020;28;2740;-67
2023/03/15 15:43:09;;;;;;;;;;;;;;;6.09;59.70;95641.94;10401978;28;2757;-67
2023/03/15 15:48:12;;;;;;;;;;;;;;;6.02;59.75;95639.47;10404477;28;2760;-67
2023/03/15 15:53:15;;;;;;;;;;;;;;;5.20;67.85;95664.13;10406819;28;2760;-67
2023/03/15 15:58:17;;;;;;;;;;;;;;;4.68;90.82;95676.81;10401443;28;2756;-66
2023/03/15 16:03:20;;;;;;;;;;;;;;;4.29;100.00;95674.75;10400945;28;2766;-67
2023/03/15 16:08:23;;;;;;;;;;;;;;;4.03;100.00;95713.34;10400773;28;2781;-66
2023/03/15 16:13:27;;;;;;;;;;;;;;;3.85;100.00;95710.00;10404401;28;2841;-66
2023/03/15 16:18:30;;;;;;;;;;;;;;;3.73;100.00;95716.13;10399783;28;2784;-66
2023/03/15 16:23:33;;;;;;;;;;;;;;;3.50;100.00;95729.44;10405136;28;2824;-66
2023/03/15 16:28:36;;;;;;;;;;;;;;;3.37;100.00;95734.94;10400834;28;2012;-67
2023/03/15 16:33:38;;;;;;;;;;;;;;;3.16;100.00;95745.06;10400215;28;2017;-68
2023/03/15 16:38:41;;;;;;;;;;;;;;;3.08;100.00;95741.94;10400156;28;2806;-66
2023/03/15 16:43:44;;;;;;;;;;;;;;;3.12;100.00;95746.59;10397083;28;2682;-67
2023/03/15 16:48:50;;;;;;;;;;;;;;;3.34;100.00;95754.00;10405951;28;2627;-67
2023/03/15 16:53:53;;;;;;;;;;;;;;;3.34;100.00;95761.97;10398577;28;2749;-68
2023/03/15 16:59:11;;;;;;;;;;;;;;;3.32;100.00;95764.06;10397317;28;3094;-70
2023/03/15 17:04:14;;;;;;;;;;;;;;;3.28;100.00;95768.22;10404244;28;2710;-73
2023/03/15 17:09:17;;;;;;;;;;;;;;;3.29;100.00;95780.44;10400778;28;2695;-68
2023/03/15 17:14:19;;;;;;;;;;;;;;;3.17;100.00;95794.50;10402213;28;2842;-68
2023/03/15 17:19:22;;;;;;;;;;;;;;;3.13;100.00;95800.50;10401234;28;2882;-67
2023/03/15 17:24:25;;;;;;;;;;;;;;;3.13;100.00;95803.97;10405143;28;2841;-66
2023/03/15 17:29:28;;;;;;;;;;;;;;;3.07;100.00;95815.50;10417442;28;2812;-76
2023/03/15 17:34:32;;;;;;;;;;;;;;;3.08;100.00;95818.97;10398759;28;2713;-69
2023/03/15 17:39:35;;;;;;;;;;;;;;;3.18;100.00;95828.03;10405236;28;2838;-67
2023/03/15 17:44:38;;;;;;;;;;;;;;;3.02;100.00;95833.16;10402702;28;2704;-67
2023/03/15 17:49:41;;;;;;;;;;;;;;;2.98;100.00;95833.56;10400145;28;2743;-69
2023/03/15 17:54:44;;;;;;;;;;;;;;;2.82;100.00;95841.38;10397417;28;2732;-66
2023/03/15 17:59:47;;;;;;;;;;;;;;;2.79;100.00;95836.47;10401079;28;1973;-66
2023/03/15 18:04:49;;;;;;;;;;;;;;;2.89;100.00;95844.75;10404020;28;2104;-64
2023/03/15 18:09:52;;;;;;;;;;;;;;;2.90;100.00;95841.06;10399094;28;2787;-67
2023/03/15 18:14:54;;;;;;;;;;;;;;;2.83;100.00;95858.91;10405831;28;2819;-66
2023/03/15 18:19:57;;;;;;;;;;;;;;;2.85;100.00;95862.94;10415712;28;2758;-66
2023/03/15 18:25:00;;;;;;;;;;;;;;;2.90;100.00;95871.06;10414088;28;2745;-65
2023/03/15 18:30:02;;;;;;;;;;;;;;;2.98;100.00;95869.94;10410475;28;2699;-66
2023/03/15 18:35:06;;;;;;;;;;;;;;;2.81;100.00;95880.38;10417864;28;2754;-66
2023/03/15 18:40:08;;;;;;;;;;;;;;;2.87;100.00;95898.06;10414533;28;2780;-70
2023/03/15 18:45:11;;;;;;;;;;;;;;;2.66;100.00;95898.50;10412223;28;1767;-65
2023/03/15 18:50:23;;;;;;;;;;;;;;;2.26;100.00;95911.34;10408810;28;2903;-65
2023/03/15 18:55:25;;;;;;;;;;;;;;;2.25;100.00;95921.16;10411920;28;2867;-68
2023/03/15 19:00:38;;;;;;;;;;;;;;;2.03;100.00;95920.72;10411811;28;2882;-65
2023/03/15 19:05:40;;;;;;;;;;;;;;;2.05;100.00;95920.50;10410919;28;2803;-66
2023/03/15 19:10:45;;;;;;;;;;;;;;;2.07;100.00;95927.22;10412077;28;2706;-65
2023/03/15 19:15:48;;;;;;;;;;;;;;;2.06;100.00;95930.09;10408205;28;1933;-67
2023/03/15 19:20:52;;;;;;;;;;;;;;;1.96;100.00;95933.22;10411063;28;2819;-69
2023/03/15 19:25:54;;;;;;;;;;;;;;;2.00;100.00;95931.75;10409139;28;2755;-66
2023/03/15 19:30:57;;;;;;;;;;;;;;;2.01;100.00;95928.06;10408402;28;2785;-66
2023/03/15 19:36:00;;;;;;;;;;;;;;;2.07;100.00;95940.47;10410798;28;2779;-71
2023/03/15 19:41:03;;;;;;;;;;;;;;;2.10;100.00;95937.41;10410267;28;2711;-66
2023/03/15 19:46:06;;;;;;;;;;;;;;;2.10;100.00;95952.47;10408736;28;1914;-65
2023/03/15 19:51:10;;;;;;;;;;;;;;;2.16;100.00;95952.44;10403697;28;2797;-66
2023/03/15 19:56:13;;;;;;;;;;;;;;;2.28;100.00;95959.69;10406540;28;2744;-67
2023/03/15 20:01:16;;;;;;;;;;;;;;;2.17;100.00;95961.22;10403657;28;2891;-65
2023/03/15 20:06:20;;;;;;;;;;;;;;;2.14;100.00;95964.28;10403298;28;2694;-67
2023/03/15 20:11:28;;;;;;;;;;;;;;;2.07;100.00;95972.28;10404417;28;2767;-67
2023/03/15 20:16:31;;;;;;;;;;;;;;;2.06;100.00;95967.22;10402931;28;2002;-67
2023/03/15 20:21:34;;;;;;;;;;;;;;;1.94;100.00;95980.34;10403630;28;2768;-66
2023/03/15 20:26:37;;;;;;;;;;;;;;;1.88;100.00;95987.31;10401490;28;1974;-66
2023/03/15 20:31:39;;;;;;;;;;;;;;;1.87;100.00;96006.09;10402629;28;3064;-69
2023/03/15 20:36:42;;;;;;;;;;;;;;;1.88;100.00;95997.09;10395643;28;2690;-68
2023/03/15 20:41:45;;;;;;;;;;;;;;;1.83;100.00;96007.53;10398248;28;2780;-67
2023/03/15 20:46:47;;;;;;;;;;;;;;;1.74;100.00;96012.28;10403861;28;2719;-67
2023/03/15 20:51:50;;;;;;;;;;;;;;;1.63;100.00;96005.78;10433122;28;2733;-69
2023/03/15 20:56:56;;;;;;;;;;;;;;;1.69;100.00;96020.03;10404972;28;1989;-68
2023/03/15 21:01:59;;;;;;;;;;;;;;;1.66;100.00;96024.97;10405890;28;2849;-71
2023/03/15 21:07:03;;;;;;;;;;;;;;;1.60;100.00;96039.88;10403905;28;2902;-67
2023/03/15 21:12:06;;;;;;;;;;;;;;;1.63;100.00;96042.09;10398497;28;1965;-67
2023/03/15 21:17:09;;;;;;;;;;;;;;;1.57;100.00;96027.84;10402380;28;2111;-66
2023/03/15 21:22:11;;;;;;;;;;;;;;;1.60;100.00;96032.72;10399753;28;2687;-70
2023/03/15 21:27:14;;;;;;;;;;;;;;;1.55;100.00;96024.59;10395515;28;1938;-66
2023/03/15 21:32:17;;;;;;;;;;;;;;;1.50;100.00;96027.06;10403804;28;2756;-66
2023/03/15 21:37:20;;;;;;;;;;;;;;;1.50;100.00;96026.25;10398721;28;2712;-66
2023/03/15 21:42:22;;;;;;;;;;;;;;;1.49;100.00;96030.72;10396642;28;2859;-65
2023/03/15 21:47:26;;;;;;;;;;;;;;;1.51;100.00;96033.16;10397639;28;2745;-66
2023/03/15 21:52:28;;;;;;;;;;;;;;;1.53;100.00;96031.13;10403375;28;1975;-66
2023/03/15 21:57:32;;;;;;;;;;;;;;;1.43;100.00;96031.56;10419728;28;2747;-65
2023/03/15 22:02:35;;;;;;;;;;;;;;;1.13;100.00;96025.16;10404891;28;2762;-66
2023/03/15 22:07:46;;;;;;;;;;;;;;;0.95;100.00;96031.91;10400453;28;2748;-66
2023/03/15 22:12:48;;;;;;;;;;;;;;;0.80;100.00;96033.97;10407918;28;2206;-65
2023/03/15 22:17:51;;;;;;;;;;;;;;;0.71;100.00;96033.38;10409279;28;2701;-66
2023/03/15 22:22:53;;;;;;;;;;;;;;;0.63;100.00;96035.41;10407549;28;2778;-67
2023/03/15 22:27:56;;;;;;;;;;;;;;;0.59;100.00;96029.72;10400966;28;2809;-67
2023/03/15 22:32:59;;;;;;;;;;;;;;;0.53;100.00;96034.00;10406428;28;2821;-67
2023/03/15 22:38:08;;;;;;;;;;;;;;;0.55;100.00;96031.16;10405394;28;2020;-65
2023/03/15 22:43:11;;;;;;;;;;;;;;;0.60;100.00;96041.13;10409683;28;2025;-66
2023/03/15 22:48:14;;;;;;;;;;;;;;;0.64;100.00;96032.59;10400580;28;2740;-66
2023/03/15 22:53:16;;;;;;;;;;;;;;;0.74;100.00;96037.44;10407061;28;2728;-66
2023/03/15 22:58:19;;;;;;;;;;;;;;;0.84;100.00;96048.44;10407764;28;2195;-67
2023/03/15 23:03:25;;;;;;;;;;;;;;;0.96;100.00;96038.03;10405682;28;2092;-66
2023/03/15 23:08:27;;;;;;;;;;;;;;;1.01;100.00;96044.31;10405596;28;3113;-66
2023/03/15 23:13:40;;;;;;;;;;;;;;;1.00;100.00;96047.97;10412530;28;2756;-67
2023/03/15 23:18:43;;;;;;;;;;;;;;;1.03;100.00;96047.59;10411522;28;2788;-65
2023/03/15 23:23:48;;;;;;;;;;;;;;;0.96;100.00;96045.97;10405584;28;2769;-64
2023/03/15 23:28:50;;;;;;;;;;;;;;;1.01;100.00;96046.97;10405492;28;2755;-65
2023/03/15 23:33:53;;;;;;;;;;;;;;;0.87;100.00;96052.50;10404410;28;2794;-66
2023/03/15 23:38:55;;;;;;;;;;;;;;;0.80;100.00;96047.22;10402717;28;2899;-65
2023/03/15 23:43:58;;;;;;;;;;;;;;;0.84;100.00;96048.44;10398198;28;2742;-66
2023/03/15 23:49:00;;;;;;;;;;;;;;;0.83;100.00;96049.47;10400645;28;1962;-67
2023/03/15 23:54:03;;;;;;;;;;;;;;;0.91;100.00;96065.13;10403889;28;2680;-66
2023/03/15 23:59:05;;;;;;;;;;;;;;;0.90;100.00;96039.66;10402380;28;2297;-66
